Willcox, AZ (85643)

10:13 AM MST on September 04, 2015 (GMT -0700)
14 miles North West of Willcox | | Change Station
CLOSE
Current Station
Personal Weather Station
Location: Willcox, AZ
Elevation: 4275 ft
Nearby Weather Stations

Elev 4275 ft 32.38 °N, 109.95 °W | Updated 0 second ago

Overcast
Overcast
64.9 °F
Feels Like 64.9 °F
N
2.9
Wind Variable Wind from SE
Gusts 4.0 mph

Today
High -- | Low -- °F
--% Chance of Precip.
Yesterday
High -- | Low -- °F
Precip. -- in
5:56 AM 6:40 PM
Waning Gibbous, 58% visible
Pressure 29.90 in
Visibility 10.0 miles
Clouds Overcast 12000 ft
Dew Point 61 °F
Humidity 87%
Rainfall 0.16 in
Snow Depth Not available.
UV 2 out of 12
Pollen .70 out of 12
Air Quality Not available.
Flu Activity Not available.
METAR KSAD 041651Z AUTO 10007KT 10SM -RA OVC120 22/18 A3003 RMK AO2 RAE22B48 SLP124 P0000 T02220178
Pressure 29.90 in
Visibility 10.0 miles
Clouds Overcast 12000 ft
Dew Point 61 °F
Humidity 87%
Rainfall 0.16 in
Snow Depth Not available.
UV 2 out of 12
Pollen .70 out of 12
Air Quality Not available.
Flu Activity Not available.
METAR KSAD 041651Z AUTO 10007KT 10SM -RA OVC120 22/18 A3003 RMK AO2 RAE22B48 SLP124 P0000 T02220178

10-Day Weather Forecast

×

Almanac

Astronomy

Sep. 04, 2015 Rise Set
Actual Time
Civil Twilight
Nautical Twilight
Astronomical Twilight
Moon
Length of Visible Light
Length of Day
Tomorrow will be .
, % of the Moon is Illuminated

Today's Extremes

State Highs State Lows

Community

WunderPhotos

Upload Photos

1,852,231 photos uploaded!

WunderBlogs® & News

Nearby

Air Quality

  Air Quality AQ Index Pollutant
Not available.

Snow Depth

Station Depth Elevation

Earthquake Activity

City Distance Mag. Time & Date
Minimum magnitude displayed is 2.5.

Coastal Water Temperatures

Place Temperature

Stations

Nearby Weather Stations

Station Location Temp. Windchill Dew Point Humidity Wind Precip. Elev Updated Type